Terminal Aerodrome Forecast
Issued by NWS

Home | Current Version | Previous Version | Graphics & Text | Print | Product List | Glossary On
Versions: 1 2 3 4 5 6 7 8 9 10 11 12 13 14 15 16 17 18
779
FTUS43 KICT 270404 AAB
TAFCNU
TAF AMD
KCNU 270404Z 2704/2724 15009KT 6SM -TSRA SCT040 OVC080CB
      TEMPO 2704/2706 VRB35G45KT 3SM TSRA OVC012CB
     FM270600 VRB09G17KT 6SM -TSRA SCT035 OVC070CB
      TEMPO 2706/2709 3SM TSRA OVC035CB
     FM270900 14009KT P6SM SCT010 OVC080=

USA.gov is the U.S. government's official web portal to all federal, state and local government web resources and services.